sensor_id;sensor_type;location;lat;lon;timestamp;P1;durP1;ratioP1;P2;durP2;ratioP2
66663;SDS011;59683;51.428;-1.994;2023-06-14T00:01:13;10.13;;;6.47;;
66663;SDS011;59683;51.428;-1.994;2023-06-14T00:03:39;10.40;;;7.10;;
66663;SDS011;59683;51.428;-1.994;2023-06-14T00:06:04;12.73;;;6.70;;
66663;SDS011;59683;51.428;-1.994;2023-06-14T00:08:30;9.13;;;6.67;;
66663;SDS011;59683;51.428;-1.994;2023-06-14T00:10:55;12.07;;;6.87;;
66663;SDS011;59683;51.428;-1.994;2023-06-14T00:13:21;10.07;;;6.47;;
66663;SDS011;59683;51.428;-1.994;2023-06-14T00:15:46;11.73;;;7.17;;
66663;SDS011;59683;51.428;-1.994;2023-06-14T00:18:12;9.70;;;7.17;;
66663;SDS011;59683;51.428;-1.994;2023-06-14T00:20:37;13.43;;;7.70;;
66663;SDS011;59683;51.428;-1.994;2023-06-14T00:23:04;9.23;;;7.13;;
66663;SDS011;59683;51.428;-1.994;2023-06-14T00:25:30;11.10;;;7.20;;
66663;SDS011;59683;51.428;-1.994;2023-06-14T00:27:57;14.07;;;7.80;;
66663;SDS011;59683;51.428;-1.994;2023-06-14T00:30:23;13.40;;;7.45;;
66663;SDS011;59683;51.428;-1.994;2023-06-14T00:32:48;13.87;;;7.63;;
66663;SDS011;59683;51.428;-1.994;2023-06-14T00:35:14;13.10;;;8.35;;
66663;SDS011;59683;51.428;-1.994;2023-06-14T00:37:40;13.17;;;8.03;;
66663;SDS011;59683;51.428;-1.994;2023-06-14T00:40:06;12.03;;;7.50;;
66663;SDS011;59683;51.428;-1.994;2023-06-14T00:42:32;19.10;;;9.50;;
66663;SDS011;59683;51.428;-1.994;2023-06-14T00:44:58;13.53;;;8.03;;
66663;SDS011;59683;51.428;-1.994;2023-06-14T00:47:23;10.97;;;7.23;;
66663;SDS011;59683;51.428;-1.994;2023-06-14T00:49:50;13.43;;;8.15;;
66663;SDS011;59683;51.428;-1.994;2023-06-14T00:52:16;13.70;;;7.90;;
66663;SDS011;59683;51.428;-1.994;2023-06-14T00:54:42;12.57;;;7.38;;
66663;SDS011;59683;51.428;-1.994;2023-06-14T00:57:09;13.70;;;8.23;;
66663;SDS011;59683;51.428;-1.994;2023-06-14T00:59:46;15.27;;;7.82;;
66663;SDS011;59683;51.428;-1.994;2023-06-14T01:02:12;18.67;;;8.73;;
66663;SDS011;59683;51.428;-1.994;2023-06-14T01:04:40;13.07;;;7.85;;
66663;SDS011;59683;51.428;-1.994;2023-06-14T01:13:53;11.18;;;7.30;;
66663;SDS011;59683;51.428;-1.994;2023-06-14T01:16:21;10.13;;;6.88;;
66663;SDS011;59683;51.428;-1.994;2023-06-14T01:18:46;13.13;;;7.30;;
66663;SDS011;59683;51.428;-1.994;2023-06-14T01:24:43;10.93;;;7.10;;
66663;SDS011;59683;51.428;-1.994;2023-06-14T01:27:10;12.57;;;7.40;;
66663;SDS011;59683;51.428;-1.994;2023-06-14T01:29:55;12.05;;;8.18;;
66663;SDS011;59683;51.428;-1.994;2023-06-14T05:49:58;15.13;;;5.03;;
66663;SDS011;59683;51.428;-1.994;2023-06-14T05:52:23;6.00;;;3.33;;
66663;SDS011;59683;51.428;-1.994;2023-06-14T05:54:49;10.60;;;4.07;;
66663;SDS011;59683;51.428;-1.994;2023-06-14T05:57:14;8.10;;;4.13;;
66663;SDS011;59683;51.428;-1.994;2023-06-14T05:59:40;7.00;;;3.30;;
66663;SDS011;59683;51.428;-1.994;2023-06-14T06:02:05;7.90;;;3.40;;
66663;SDS011;59683;51.428;-1.994;2023-06-14T06:04:31;7.53;;;3.13;;
66663;SDS011;59683;51.428;-1.994;2023-06-14T06:06:56;9.67;;;3.40;;
66663;SDS011;59683;51.428;-1.994;2023-06-14T06:09:21;5.10;;;2.80;;
66663;SDS011;59683;51.428;-1.994;2023-06-14T06:11:47;9.67;;;3.30;;
66663;SDS011;59683;51.428;-1.994;2023-06-14T06:14:12;6.40;;;3.40;;
66663;SDS011;59683;51.428;-1.994;2023-06-14T06:16:37;10.33;;;3.10;;
66663;SDS011;59683;51.428;-1.994;2023-06-14T06:19:03;10.77;;;3.40;;
66663;SDS011;59683;51.428;-1.994;2023-06-14T06:21:28;8.90;;;3.83;;
66663;SDS011;59683;51.428;-1.994;2023-06-14T06:23:53;8.67;;;3.20;;
66663;SDS011;59683;51.428;-1.994;2023-06-14T06:26:21;6.97;;;2.80;;
66663;SDS011;59683;51.428;-1.994;2023-06-14T06:28:47;10.07;;;2.97;;
66663;SDS011;59683;51.428;-1.994;2023-06-14T06:31:13;6.23;;;3.10;;
66663;SDS011;59683;51.428;-1.994;2023-06-14T06:33:38;6.83;;;2.90;;
66663;SDS011;59683;51.428;-1.994;2023-06-14T06:36:04;10.10;;;3.10;;
66663;SDS011;59683;51.428;-1.994;2023-06-14T06:38:30;10.20;;;3.07;;
66663;SDS011;59683;51.428;-1.994;2023-06-14T06:40:56;8.20;;;3.00;;
66663;SDS011;59683;51.428;-1.994;2023-06-14T06:43:22;9.87;;;3.10;;
66663;SDS011;59683;51.428;-1.994;2023-06-14T06:45:47;8.80;;;2.87;;
66663;SDS011;59683;51.428;-1.994;2023-06-14T06:48:13;9.10;;;3.30;;
66663;SDS011;59683;51.428;-1.994;2023-06-14T06:50:38;7.20;;;2.50;;
66663;SDS011;59683;51.428;-1.994;2023-06-14T06:53:04;8.47;;;2.37;;
66663;SDS011;59683;51.428;-1.994;2023-06-14T06:55:30;8.67;;;2.90;;
66663;SDS011;59683;51.428;-1.994;2023-06-14T06:57:56;6.70;;;2.63;;
66663;SDS011;59683;51.428;-1.994;2023-06-14T07:00:21;10.60;;;3.37;;
66663;SDS011;59683;51.428;-1.994;2023-06-14T07:02:47;7.97;;;2.83;;
66663;SDS011;59683;51.428;-1.994;2023-06-14T07:05:12;5.63;;;2.43;;
66663;SDS011;59683;51.428;-1.994;2023-06-14T07:07:38;9.63;;;2.90;;
66663;SDS011;59683;51.428;-1.994;2023-06-14T07:10:04;9.20;;;3.03;;
66663;SDS011;59683;51.428;-1.994;2023-06-14T07:12:33;6.80;;;2.57;;
66663;SDS011;59683;51.428;-1.994;2023-06-14T07:15:01;6.90;;;2.50;;
66663;SDS011;59683;51.428;-1.994;2023-06-14T07:17:26;8.27;;;2.70;;
66663;SDS011;59683;51.428;-1.994;2023-06-14T07:19:52;7.22;;;2.45;;
66663;SDS011;59683;51.428;-1.994;2023-06-14T07:22:18;7.47;;;2.22;;
66663;SDS011;59683;51.428;-1.994;2023-06-14T07:24:44;12.65;;;2.65;;
66663;SDS011;59683;51.428;-1.994;2023-06-14T07:27:09;9.02;;;2.25;;
66663;SDS011;59683;51.428;-1.994;2023-06-14T07:29:35;7.95;;;2.45;;
66663;SDS011;59683;51.428;-1.994;2023-06-14T07:32:01;6.25;;;2.28;;
66663;SDS011;59683;51.428;-1.994;2023-06-14T07:34:26;7.53;;;2.42;;
66663;SDS011;59683;51.428;-1.994;2023-06-14T07:36:52;6.55;;;2.30;;
66663;SDS011;59683;51.428;-1.994;2023-06-14T07:39:19;8.27;;;2.30;;
66663;SDS011;59683;51.428;-1.994;2023-06-14T07:41:44;7.72;;;2.20;;
66663;SDS011;59683;51.428;-1.994;2023-06-14T07:44:10;6.63;;;2.65;;
66663;SDS011;59683;51.428;-1.994;2023-06-14T07:46:37;8.82;;;2.60;;
66663;SDS011;59683;51.428;-1.994;2023-06-14T07:49:03;7.32;;;2.55;;
66663;SDS011;59683;51.428;-1.994;2023-06-14T07:51:28;6.25;;;2.10;;
66663;SDS011;59683;51.428;-1.994;2023-06-14T07:53:54;7.82;;;2.72;;
66663;SDS011;59683;51.428;-1.994;2023-06-14T07:56:20;7.65;;;2.50;;
66663;SDS011;59683;51.428;-1.994;2023-06-14T07:58:45;16.40;;;2.70;;
66663;SDS011;59683;51.428;-1.994;2023-06-14T08:01:11;9.48;;;2.67;;
66663;SDS011;59683;51.428;-1.994;2023-06-14T08:03:37;6.80;;;2.00;;
66663;SDS011;59683;51.428;-1.994;2023-06-14T08:06:02;7.88;;;2.70;;
66663;SDS011;59683;51.428;-1.994;2023-06-14T08:08:29;9.75;;;2.30;;
66663;SDS011;59683;51.428;-1.994;2023-06-14T08:10:54;6.20;;;2.05;;
66663;SDS011;59683;51.428;-1.994;2023-06-14T08:13:20;5.97;;;2.13;;
66663;SDS011;59683;51.428;-1.994;2023-06-14T08:15:45;9.80;;;3.10;;
66663;SDS011;59683;51.428;-1.994;2023-06-14T08:18:11;9.50;;;2.25;;
66663;SDS011;59683;51.428;-1.994;2023-06-14T08:20:36;6.10;;;2.15;;
66663;SDS011;59683;51.428;-1.994;2023-06-14T08:23:03;4.80;;;2.20;;
66663;SDS011;59683;51.428;-1.994;2023-06-14T08:25:29;8.15;;;2.00;;
66663;SDS011;59683;51.428;-1.994;2023-06-14T08:27:55;6.85;;;2.03;;
66663;SDS011;59683;51.428;-1.994;2023-06-14T08:30:21;6.05;;;2.17;;
66663;SDS011;59683;51.428;-1.994;2023-06-14T08:32:46;5.78;;;2.28;;
66663;SDS011;59683;51.428;-1.994;2023-06-14T08:35:12;6.50;;;2.15;;
66663;SDS011;59683;51.428;-1.994;2023-06-14T08:37:38;7.72;;;2.22;;
66663;SDS011;59683;51.428;-1.994;2023-06-14T08:40:05;6.78;;;1.83;;
66663;SDS011;59683;51.428;-1.994;2023-06-14T08:42:42;6.55;;;1.60;;
66663;SDS011;59683;51.428;-1.994;2023-06-14T08:45:08;5.32;;;1.83;;
66663;SDS011;59683;51.428;-1.994;2023-06-14T08:47:33;7.00;;;2.25;;
66663;SDS011;59683;51.428;-1.994;2023-06-14T08:50:01;6.22;;;1.73;;
66663;SDS011;59683;51.428;-1.994;2023-06-14T08:52:30;6.28;;;2.03;;
66663;SDS011;59683;51.428;-1.994;2023-06-14T08:54:59;6.05;;;1.98;;
66663;SDS011;59683;51.428;-1.994;2023-06-14T08:57:25;6.30;;;1.77;;
66663;SDS011;59683;51.428;-1.994;2023-06-14T08:59:55;7.03;;;2.70;;
66663;SDS011;59683;51.428;-1.994;2023-06-14T09:02:22;6.57;;;2.22;;
66663;SDS011;59683;51.428;-1.994;2023-06-14T09:04:47;4.40;;;1.85;;
66663;SDS011;59683;51.428;-1.994;2023-06-14T09:07:14;5.10;;;2.22;;
66663;SDS011;59683;51.428;-1.994;2023-06-14T09:09:40;7.82;;;1.98;;
66663;SDS011;59683;51.428;-1.994;2023-06-14T09:12:10;6.95;;;2.10;;
66663;SDS011;59683;51.428;-1.994;2023-06-14T09:14:36;7.82;;;1.95;;
66663;SDS011;59683;51.428;-1.994;2023-06-14T09:17:04;9.17;;;1.83;;
66663;SDS011;59683;51.428;-1.994;2023-06-14T09:19:30;10.77;;;2.15;;
66663;SDS011;59683;51.428;-1.994;2023-06-14T09:21:56;6.15;;;2.10;;
66663;SDS011;59683;51.428;-1.994;2023-06-14T09:24:23;9.38;;;2.00;;
66663;SDS011;59683;51.428;-1.994;2023-06-14T09:26:51;5.78;;;1.88;;
66663;SDS011;59683;51.428;-1.994;2023-06-14T09:29:16;5.75;;;1.75;;
66663;SDS011;59683;51.428;-1.994;2023-06-14T09:31:42;8.63;;;2.00;;
66663;SDS011;59683;51.428;-1.994;2023-06-14T09:34:08;4.72;;;1.70;;
66663;SDS011;59683;51.428;-1.994;2023-06-14T09:36:34;6.57;;;1.75;;
66663;SDS011;59683;51.428;-1.994;2023-06-14T09:39:00;4.57;;;1.80;;
66663;SDS011;59683;51.428;-1.994;2023-06-14T09:41:31;6.18;;;1.90;;
66663;SDS011;59683;51.428;-1.994;2023-06-14T09:43:58;6.93;;;1.75;;
66663;SDS011;59683;51.428;-1.994;2023-06-14T09:46:28;6.70;;;2.20;;
66663;SDS011;59683;51.428;-1.994;2023-06-14T09:48:57;4.57;;;1.70;;
66663;SDS011;59683;51.428;-1.994;2023-06-14T09:51:23;7.30;;;2.00;;
66663;SDS011;59683;51.428;-1.994;2023-06-14T09:53:49;6.90;;;1.70;;
66663;SDS011;59683;51.428;-1.994;2023-06-14T09:56:20;5.07;;;2.00;;
66663;SDS011;59683;51.428;-1.994;2023-06-14T09:58:54;5.72;;;1.40;;
66663;SDS011;59683;51.428;-1.994;2023-06-14T10:01:21;6.82;;;2.20;;
66663;SDS011;59683;51.428;-1.994;2023-06-14T10:03:50;5.70;;;2.05;;
66663;SDS011;59683;51.428;-1.994;2023-06-14T10:06:20;5.18;;;1.73;;
66663;SDS011;59683;51.428;-1.994;2023-06-14T10:11:17;4.32;;;1.80;;
66663;SDS011;59683;51.428;-1.994;2023-06-14T10:13:43;4.80;;;1.50;;
66663;SDS011;59683;51.428;-1.994;2023-06-14T10:16:10;7.53;;;1.83;;
66663;SDS011;59683;51.428;-1.994;2023-06-14T10:18:47;6.03;;;1.70;;
66663;SDS011;59683;51.428;-1.994;2023-06-14T10:21:22;4.50;;;1.58;;
66663;SDS011;59683;51.428;-1.994;2023-06-14T10:23:53;5.32;;;1.73;;
66663;SDS011;59683;51.428;-1.994;2023-06-14T10:29:23;4.03;;;1.58;;
66663;SDS011;59683;51.428;-1.994;2023-06-14T10:31:48;5.57;;;2.17;;
66663;SDS011;59683;51.428;-1.994;2023-06-14T10:34:22;4.60;;;1.77;;
66663;SDS011;59683;51.428;-1.994;2023-06-14T10:37:02;5.00;;;1.60;;
66663;SDS011;59683;51.428;-1.994;2023-06-14T10:39:41;7.55;;;1.70;;
66663;SDS011;59683;51.428;-1.994;2023-06-14T10:42:10;6.05;;;1.90;;
66663;SDS011;59683;51.428;-1.994;2023-06-14T10:44:40;6.10;;;1.85;;
66663;SDS011;59683;51.428;-1.994;2023-06-14T10:47:32;4.80;;;1.75;;
66663;SDS011;59683;51.428;-1.994;2023-06-14T10:50:04;5.63;;;1.65;;
66663;SDS011;59683;51.428;-1.994;2023-06-14T10:52:38;7.10;;;2.55;;
66663;SDS011;59683;51.428;-1.994;2023-06-14T11:00:07;6.15;;;2.00;;
66663;SDS011;59683;51.428;-1.994;2023-06-14T11:05:32;6.10;;;1.83;;
66663;SDS011;59683;51.428;-1.994;2023-06-14T11:13:12;6.18;;;1.85;;
66663;SDS011;59683;51.428;-1.994;2023-06-14T11:15:38;4.95;;;2.25;;
66663;SDS011;59683;51.428;-1.994;2023-06-14T11:18:04;6.25;;;1.92;;
66663;SDS011;59683;51.428;-1.994;2023-06-14T11:20:32;8.93;;;2.22;;
66663;SDS011;59683;51.428;-1.994;2023-06-14T11:22:59;7.20;;;1.95;;
66663;SDS011;59683;51.428;-1.994;2023-06-14T11:25:25;8.50;;;2.35;;
66663;SDS011;59683;51.428;-1.994;2023-06-14T11:27:51;10.18;;;1.95;;
66663;SDS011;59683;51.428;-1.994;2023-06-14T11:30:17;4.13;;;2.10;;
66663;SDS011;59683;51.428;-1.994;2023-06-14T11:32:45;6.50;;;1.95;;
66663;SDS011;59683;51.428;-1.994;2023-06-14T11:35:15;7.00;;;2.35;;
66663;SDS011;59683;51.428;-1.994;2023-06-14T11:37:41;6.53;;;2.00;;
66663;SDS011;59683;51.428;-1.994;2023-06-14T11:40:07;6.55;;;2.15;;
66663;SDS011;59683;51.428;-1.994;2023-06-14T11:42:34;6.20;;;2.42;;
66663;SDS011;59683;51.428;-1.994;2023-06-14T11:45:01;6.50;;;2.15;;
66663;SDS011;59683;51.428;-1.994;2023-06-14T11:47:33;7.45;;;2.22;;
66663;SDS011;59683;51.428;-1.994;2023-06-14T11:50:03;6.88;;;2.10;;
66663;SDS011;59683;51.428;-1.994;2023-06-14T11:52:30;4.78;;;2.22;;
66663;SDS011;59683;51.428;-1.994;2023-06-14T11:54:56;5.15;;;2.45;;
66663;SDS011;59683;51.428;-1.994;2023-06-14T11:57:22;6.82;;;2.22;;
66663;SDS011;59683;51.428;-1.994;2023-06-14T11:59:48;5.50;;;2.40;;
66663;SDS011;59683;51.428;-1.994;2023-06-14T12:02:14;9.57;;;2.78;;
66663;SDS011;59683;51.428;-1.994;2023-06-14T12:04:44;5.57;;;2.55;;
66663;SDS011;59683;51.428;-1.994;2023-06-14T12:07:12;8.45;;;2.45;;
66663;SDS011;59683;51.428;-1.994;2023-06-14T12:10:22;8.25;;;2.45;;
66663;SDS011;59683;51.428;-1.994;2023-06-14T12:12:39;4.60;;;2.05;;
66663;SDS011;59683;51.428;-1.994;2023-06-14T12:15:05;6.28;;;2.58;;
66663;SDS011;59683;51.428;-1.994;2023-06-14T12:17:36;5.10;;;2.47;;
66663;SDS011;59683;51.428;-1.994;2023-06-14T12:20:07;5.35;;;2.72;;
66663;SDS011;59683;51.428;-1.994;2023-06-14T12:22:38;8.50;;;2.50;;
66663;SDS011;59683;51.428;-1.994;2023-06-14T12:25:34;8.55;;;2.42;;
66663;SDS011;59683;51.428;-1.994;2023-06-14T12:28:05;9.73;;;3.25;;
66663;SDS011;59683;51.428;-1.994;2023-06-14T12:30:32;5.80;;;2.60;;
66663;SDS011;59683;51.428;-1.994;2023-06-14T12:32:58;8.48;;;3.03;;
66663;SDS011;59683;51.428;-1.994;2023-06-14T12:35:23;7.22;;;2.85;;
66663;SDS011;59683;51.428;-1.994;2023-06-14T12:37:48;5.05;;;2.70;;
66663;SDS011;59683;51.428;-1.994;2023-06-14T12:40:14;6.80;;;2.90;;
66663;SDS011;59683;51.428;-1.994;2023-06-14T12:42:40;6.25;;;2.53;;
66663;SDS011;59683;51.428;-1.994;2023-06-14T12:45:06;6.95;;;2.55;;
66663;SDS011;59683;51.428;-1.994;2023-06-14T12:47:32;7.18;;;2.72;;
66663;SDS011;59683;51.428;-1.994;2023-06-14T12:49:57;10.35;;;2.88;;
66663;SDS011;59683;51.428;-1.994;2023-06-14T12:52:22;9.32;;;3.05;;
66663;SDS011;59683;51.428;-1.994;2023-06-14T12:54:48;9.68;;;2.95;;
66663;SDS011;59683;51.428;-1.994;2023-06-14T12:57:13;9.10;;;2.92;;
66663;SDS011;59683;51.428;-1.994;2023-06-14T12:59:39;6.95;;;2.72;;
66663;SDS011;59683;51.428;-1.994;2023-06-14T13:02:17;9.35;;;3.35;;
66663;SDS011;59683;51.428;-1.994;2023-06-14T13:04:43;7.03;;;2.75;;
66663;SDS011;59683;51.428;-1.994;2023-06-14T13:07:09;9.43;;;2.83;;
66663;SDS011;59683;51.428;-1.994;2023-06-14T13:09:36;8.00;;;3.15;;
66663;SDS011;59683;51.428;-1.994;2023-06-14T13:12:01;9.77;;;3.53;;
66663;SDS011;59683;51.428;-1.994;2023-06-14T13:14:27;9.93;;;3.33;;
66663;SDS011;59683;51.428;-1.994;2023-06-14T13:16:52;12.85;;;2.97;;
66663;SDS011;59683;51.428;-1.994;2023-06-14T13:19:18;7.40;;;3.10;;
66663;SDS011;59683;51.428;-1.994;2023-06-14T13:21:43;8.02;;;2.67;;
66663;SDS011;59683;51.428;-1.994;2023-06-14T13:24:08;5.40;;;2.85;;
66663;SDS011;59683;51.428;-1.994;2023-06-14T13:26:34;6.78;;;2.78;;
66663;SDS011;59683;51.428;-1.994;2023-06-14T13:29:00;6.90;;;2.83;;
66663;SDS011;59683;51.428;-1.994;2023-06-14T13:31:25;8.90;;;2.80;;
66663;SDS011;59683;51.428;-1.994;2023-06-14T13:33:51;8.73;;;2.92;;
66663;SDS011;59683;51.428;-1.994;2023-06-14T13:36:16;8.25;;;3.20;;
66663;SDS011;59683;51.428;-1.994;2023-06-14T13:38:42;6.10;;;2.70;;
66663;SDS011;59683;51.428;-1.994;2023-06-14T13:41:07;5.60;;;2.55;;
66663;SDS011;59683;51.428;-1.994;2023-06-14T13:43:32;9.32;;;3.33;;
66663;SDS011;59683;51.428;-1.994;2023-06-14T13:45:58;8.13;;;3.22;;
66663;SDS011;59683;51.428;-1.994;2023-06-14T13:48:23;11.05;;;3.40;;
66663;SDS011;59683;51.428;-1.994;2023-06-14T13:50:49;7.18;;;2.90;;
66663;SDS011;59683;51.428;-1.994;2023-06-14T13:53:15;5.25;;;3.17;;
66663;SDS011;59683;51.428;-1.994;2023-06-14T13:55:40;9.75;;;3.15;;
66663;SDS011;59683;51.428;-1.994;2023-06-14T13:58:06;7.07;;;2.80;;
66663;SDS011;59683;51.428;-1.994;2023-06-14T14:00:31;7.28;;;2.92;;
66663;SDS011;59683;51.428;-1.994;2023-06-14T14:02:57;7.97;;;3.60;;
66663;SDS011;59683;51.428;-1.994;2023-06-14T14:05:24;5.30;;;2.72;;
66663;SDS011;59683;51.428;-1.994;2023-06-14T14:07:53;6.50;;;3.33;;
66663;SDS011;59683;51.428;-1.994;2023-06-14T14:10:19;7.07;;;3.00;;
66663;SDS011;59683;51.428;-1.994;2023-06-14T14:12:45;7.18;;;3.45;;
66663;SDS011;59683;51.428;-1.994;2023-06-14T14:15:11;11.73;;;3.10;;
66663;SDS011;59683;51.428;-1.994;2023-06-14T14:17:39;7.05;;;3.05;;
66663;SDS011;59683;51.428;-1.994;2023-06-14T14:20:05;8.80;;;3.78;;
66663;SDS011;59683;51.428;-1.994;2023-06-14T14:22:31;6.85;;;2.85;;
66663;SDS011;59683;51.428;-1.994;2023-06-14T14:24:57;7.35;;;3.30;;
66663;SDS011;59683;51.428;-1.994;2023-06-14T14:27:22;8.00;;;3.45;;
66663;SDS011;59683;51.428;-1.994;2023-06-14T14:29:51;4.83;;;2.83;;
66663;SDS011;59683;51.428;-1.994;2023-06-14T14:32:16;7.13;;;3.17;;
66663;SDS011;59683;51.428;-1.994;2023-06-14T14:34:41;7.07;;;3.05;;
66663;SDS011;59683;51.428;-1.994;2023-06-14T14:37:07;8.05;;;3.65;;
66663;SDS011;59683;51.428;-1.994;2023-06-14T14:39:32;5.93;;;3.00;;
66663;SDS011;59683;51.428;-1.994;2023-06-14T14:41:58;6.45;;;2.90;;
66663;SDS011;59683;51.428;-1.994;2023-06-14T14:44:23;7.13;;;3.05;;
66663;SDS011;59683;51.428;-1.994;2023-06-14T14:46:49;7.00;;;2.83;;
66663;SDS011;59683;51.428;-1.994;2023-06-14T14:49:14;8.00;;;2.88;;
66663;SDS011;59683;51.428;-1.994;2023-06-14T14:51:40;6.40;;;3.03;;
66663;SDS011;59683;51.428;-1.994;2023-06-14T14:54:05;5.07;;;2.72;;
66663;SDS011;59683;51.428;-1.994;2023-06-14T14:56:31;7.07;;;3.10;;
66663;SDS011;59683;51.428;-1.994;2023-06-14T14:58:57;6.05;;;2.90;;
66663;SDS011;59683;51.428;-1.994;2023-06-14T15:01:22;12.65;;;3.80;;
66663;SDS011;59683;51.428;-1.994;2023-06-14T15:03:47;7.72;;;3.90;;
66663;SDS011;59683;51.428;-1.994;2023-06-14T15:06:13;7.53;;;3.35;;
66663;SDS011;59683;51.428;-1.994;2023-06-14T15:08:38;7.70;;;3.15;;
66663;SDS011;59683;51.428;-1.994;2023-06-14T15:11:04;7.03;;;3.08;;
66663;SDS011;59683;51.428;-1.994;2023-06-14T15:13:29;8.23;;;3.30;;
66663;SDS011;59683;51.428;-1.994;2023-06-14T15:15:54;7.38;;;3.30;;
66663;SDS011;59683;51.428;-1.994;2023-06-14T15:18:20;5.28;;;3.20;;
66663;SDS011;59683;51.428;-1.994;2023-06-14T15:20:46;5.82;;;3.10;;
66663;SDS011;59683;51.428;-1.994;2023-06-14T15:23:12;8.07;;;3.30;;
66663;SDS011;59683;51.428;-1.994;2023-06-14T15:25:44;8.25;;;3.67;;
66663;SDS011;59683;51.428;-1.994;2023-06-14T15:28:10;5.05;;;3.10;;
66663;SDS011;59683;51.428;-1.994;2023-06-14T15:30:35;4.78;;;3.33;;
66663;SDS011;59683;51.428;-1.994;2023-06-14T15:33:00;10.60;;;3.30;;
66663;SDS011;59683;51.428;-1.994;2023-06-14T15:35:26;6.50;;;3.40;;
66663;SDS011;59683;51.428;-1.994;2023-06-14T15:37:51;7.22;;;3.05;;
66663;SDS011;59683;51.428;-1.994;2023-06-14T15:40:17;8.10;;;3.63;;
66663;SDS011;59683;51.428;-1.994;2023-06-14T15:42:42;6.65;;;3.38;;
66663;SDS011;59683;51.428;-1.994;2023-06-14T15:45:08;8.27;;;3.67;;
66663;SDS011;59683;51.428;-1.994;2023-06-14T15:47:34;12.40;;;6.45;;
66663;SDS011;59683;51.428;-1.994;2023-06-14T15:49:59;6.75;;;3.38;;
66663;SDS011;59683;51.428;-1.994;2023-06-14T15:52:25;6.80;;;3.38;;
66663;SDS011;59683;51.428;-1.994;2023-06-14T15:54:50;8.35;;;3.22;;
66663;SDS011;59683;51.428;-1.994;2023-06-14T15:57:15;7.32;;;3.53;;
66663;SDS011;59683;51.428;-1.994;2023-06-14T15:59:41;7.00;;;3.47;;
66663;SDS011;59683;51.428;-1.994;2023-06-14T16:02:06;9.70;;;4.65;;
66663;SDS011;59683;51.428;-1.994;2023-06-14T16:04:32;6.50;;;3.28;;
66663;SDS011;59683;51.428;-1.994;2023-06-14T16:06:57;6.15;;;3.63;;
66663;SDS011;59683;51.428;-1.994;2023-06-14T16:09:23;8.00;;;3.63;;
66663;SDS011;59683;51.428;-1.994;2023-06-14T16:11:48;7.85;;;4.10;;
66663;SDS011;59683;51.428;-1.994;2023-06-14T16:14:13;8.93;;;3.28;;
66663;SDS011;59683;51.428;-1.994;2023-06-14T16:16:39;6.95;;;3.20;;
66663;SDS011;59683;51.428;-1.994;2023-06-14T16:19:05;5.28;;;3.05;;
66663;SDS011;59683;51.428;-1.994;2023-06-14T16:21:31;6.22;;;3.35;;
66663;SDS011;59683;51.428;-1.994;2023-06-14T16:24:01;11.88;;;3.88;;
66663;SDS011;59683;51.428;-1.994;2023-06-14T16:26:29;6.78;;;3.63;;
66663;SDS011;59683;51.428;-1.994;2023-06-14T16:28:55;9.70;;;3.10;;
66663;SDS011;59683;51.428;-1.994;2023-06-14T16:31:20;7.07;;;3.67;;
66663;SDS011;59683;51.428;-1.994;2023-06-14T16:33:47;7.55;;;3.22;;
66663;SDS011;59683;51.428;-1.994;2023-06-14T16:36:19;6.95;;;3.83;;
66663;SDS011;59683;51.428;-1.994;2023-06-14T16:38:45;7.65;;;3.58;;
66663;SDS011;59683;51.428;-1.994;2023-06-14T16:41:10;6.97;;;3.20;;
66663;SDS011;59683;51.428;-1.994;2023-06-14T16:43:38;5.43;;;3.30;;
66663;SDS011;59683;51.428;-1.994;2023-06-14T16:46:03;6.82;;;3.45;;
66663;SDS011;59683;51.428;-1.994;2023-06-14T16:48:29;8.57;;;3.40;;
66663;SDS011;59683;51.428;-1.994;2023-06-14T16:50:54;6.40;;;3.40;;
66663;SDS011;59683;51.428;-1.994;2023-06-14T16:53:20;6.45;;;3.33;;
66663;SDS011;59683;51.428;-1.994;2023-06-14T16:55:45;6.25;;;3.50;;
66663;SDS011;59683;51.428;-1.994;2023-06-14T16:58:11;10.43;;;3.83;;
66663;SDS011;59683;51.428;-1.994;2023-06-14T17:00:36;7.85;;;3.88;;
66663;SDS011;59683;51.428;-1.994;2023-06-14T17:03:02;7.45;;;3.55;;
66663;SDS011;59683;51.428;-1.994;2023-06-14T17:05:29;5.38;;;3.50;;
66663;SDS011;59683;51.428;-1.994;2023-06-14T17:07:55;11.10;;;4.13;;
66663;SDS011;59683;51.428;-1.994;2023-06-14T17:10:20;5.78;;;3.55;;
66663;SDS011;59683;51.428;-1.994;2023-06-14T17:12:46;7.43;;;3.50;;
66663;SDS011;59683;51.428;-1.994;2023-06-14T17:15:11;7.28;;;3.40;;
66663;SDS011;59683;51.428;-1.994;2023-06-14T17:17:36;6.30;;;3.63;;
66663;SDS011;59683;51.428;-1.994;2023-06-14T17:20:02;11.70;;;4.20;;
66663;SDS011;59683;51.428;-1.994;2023-06-14T17:22:28;8.18;;;3.63;;
66663;SDS011;59683;51.428;-1.994;2023-06-14T17:24:54;7.55;;;3.97;;
66663;SDS011;59683;51.428;-1.994;2023-06-14T17:27:19;9.95;;;3.95;;
66663;SDS011;59683;51.428;-1.994;2023-06-14T17:29:45;6.18;;;3.63;;
66663;SDS011;59683;51.428;-1.994;2023-06-14T17:32:10;10.65;;;4.30;;
66663;SDS011;59683;51.428;-1.994;2023-06-14T17:34:36;16.13;;;4.78;;
66663;SDS011;59683;51.428;-1.994;2023-06-14T17:37:02;6.82;;;4.45;;
66663;SDS011;59683;51.428;-1.994;2023-06-14T17:39:27;8.80;;;4.33;;
66663;SDS011;59683;51.428;-1.994;2023-06-14T17:41:53;7.30;;;4.10;;
66663;SDS011;59683;51.428;-1.994;2023-06-14T17:44:18;9.30;;;4.60;;
66663;SDS011;59683;51.428;-1.994;2023-06-14T17:46:44;7.67;;;4.80;;
66663;SDS011;59683;51.428;-1.994;2023-06-14T17:49:09;7.67;;;4.20;;
66663;SDS011;59683;51.428;-1.994;2023-06-14T17:51:35;8.37;;;4.37;;
66663;SDS011;59683;51.428;-1.994;2023-06-14T17:54:00;8.20;;;4.93;;
66663;SDS011;59683;51.428;-1.994;2023-06-14T17:56:26;8.33;;;4.33;;
66663;SDS011;59683;51.428;-1.994;2023-06-14T17:58:52;11.30;;;4.67;;
66663;SDS011;59683;51.428;-1.994;2023-06-14T18:01:20;9.73;;;4.27;;
66663;SDS011;59683;51.428;-1.994;2023-06-14T18:03:46;7.77;;;4.17;;
66663;SDS011;59683;51.428;-1.994;2023-06-14T18:06:11;7.27;;;4.20;;
66663;SDS011;59683;51.428;-1.994;2023-06-14T18:08:37;8.77;;;5.63;;
66663;SDS011;59683;51.428;-1.994;2023-06-14T18:11:02;10.13;;;4.60;;
66663;SDS011;59683;51.428;-1.994;2023-06-14T18:13:28;14.30;;;5.07;;
66663;SDS011;59683;51.428;-1.994;2023-06-14T18:15:53;8.33;;;5.17;;
66663;SDS011;59683;51.428;-1.994;2023-06-14T18:18:19;6.73;;;4.43;;
66663;SDS011;59683;51.428;-1.994;2023-06-14T18:20:44;13.00;;;4.40;;
66663;SDS011;59683;51.428;-1.994;2023-06-14T18:23:10;9.53;;;4.43;;
66663;SDS011;59683;51.428;-1.994;2023-06-14T18:25:35;8.67;;;3.97;;
66663;SDS011;59683;51.428;-1.994;2023-06-14T18:28:00;6.97;;;4.33;;
66663;SDS011;59683;51.428;-1.994;2023-06-14T18:30:26;10.97;;;4.37;;
66663;SDS011;59683;51.428;-1.994;2023-06-14T18:32:51;7.13;;;4.00;;
66663;SDS011;59683;51.428;-1.994;2023-06-14T18:35:17;6.53;;;3.57;;
66663;SDS011;59683;51.428;-1.994;2023-06-14T18:37:42;7.57;;;4.00;;
66663;SDS011;59683;51.428;-1.994;2023-06-14T18:40:08;6.23;;;4.07;;
66663;SDS011;59683;51.428;-1.994;2023-06-14T18:42:35;7.33;;;4.33;;
66663;SDS011;59683;51.428;-1.994;2023-06-14T18:45:00;7.47;;;4.23;;
66663;SDS011;59683;51.428;-1.994;2023-06-14T18:47:26;10.60;;;4.40;;
66663;SDS011;59683;51.428;-1.994;2023-06-14T18:49:51;9.23;;;4.27;;
66663;SDS011;59683;51.428;-1.994;2023-06-14T18:52:17;8.80;;;4.53;;
66663;SDS011;59683;51.428;-1.994;2023-06-14T18:54:42;9.27;;;5.07;;
66663;SDS011;59683;51.428;-1.994;2023-06-14T18:57:08;7.57;;;4.67;;
66663;SDS011;59683;51.428;-1.994;2023-06-14T18:59:33;8.43;;;4.60;;
66663;SDS011;59683;51.428;-1.994;2023-06-14T19:01:59;8.03;;;4.00;;
66663;SDS011;59683;51.428;-1.994;2023-06-14T19:04:24;9.70;;;4.27;;
66663;SDS011;59683;51.428;-1.994;2023-06-14T19:06:50;7.63;;;4.43;;
66663;SDS011;59683;51.428;-1.994;2023-06-14T19:09:15;9.93;;;4.53;;
66663;SDS011;59683;51.428;-1.994;2023-06-14T19:11:43;8.33;;;4.13;;
66663;SDS011;59683;51.428;-1.994;2023-06-14T19:14:10;13.23;;;4.93;;
66663;SDS011;59683;51.428;-1.994;2023-06-14T19:16:35;8.17;;;3.90;;